IGO447L VABB-VIDP
Flight info
| Callsign | IGO447L |
|---|---|
| Flight time | 2h 7m |
| Altitude | 34000 |
| Route | ANOLI2A ISRIS Q1 UKASO UKASO6C |
| Aircraft | A21N/M-SDE2E3FGHIRWXY/LB1 |
Departure
| Time | 2026-04-27 05:19 |
|---|---|
| Airport | Chhatrapati Shivaji Maharaj International Airport (VABB) |
Arrival
| Time | 2026-04-27 07:26 |
|---|---|
| Airport | Indira Gandhi International Airport (VIDP) |
| Time | Latitude | Longitude | Altitude | Speed | Heading |
|---|---|---|---|---|---|
| 2026-04-27 04:58 | 19.09166 | 72.85564 | 33 ft | 0 kts | 0° |
| 2026-04-27 05:06 | 19.09152 | 72.85564 | 33 ft | 2 kts | 0° |
| 2026-04-27 05:06 | 19.09136 | 72.85564 | 29 ft | 2 kts | 0° |
| 2026-04-27 05:06 | 19.09119 | 72.85564 | 30 ft | 2 kts | 0° |
| 2026-04-27 05:07 | 19.09103 | 72.85564 | 29 ft | 2 kts | 0° |
| 2026-04-27 05:07 | 19.09088 | 72.85557 | 28 ft | 2 kts | 77° |
| 2026-04-27 05:07 | 19.09087 | 72.85552 | 27 ft | 0 kts | 104° |
| 2026-04-27 05:11 | 19.09087 | 72.85553 | 27 ft | 0 kts | 103° |
| 2026-04-27 05:11 | 19.09087 | 72.85554 | 28 ft | 1 kts | 101° |
| 2026-04-27 05:12 | 19.09084 | 72.85571 | 29 ft | 4 kts | 101° |
| 2026-04-27 05:12 | 19.09050 | 72.85606 | 30 ft | 10 kts | 146° |
| 2026-04-27 05:12 | 19.09028 | 72.85686 | 30 ft | 14 kts | 91° |
| 2026-04-27 05:12 | 19.09030 | 72.85801 | 31 ft | 17 kts | 91° |
| 2026-04-27 05:13 | 19.09032 | 72.85942 | 32 ft | 21 kts | 90° |
| 2026-04-27 05:13 | 19.09035 | 72.86113 | 33 ft | 25 kts | 89° |
| 2026-04-27 05:13 | 19.09038 | 72.86310 | 35 ft | 28 kts | 90° |
| 2026-04-27 05:13 | 19.09041 | 72.86531 | 35 ft | 32 kts | 89° |
| 2026-04-27 05:14 | 19.09043 | 72.86734 | 35 ft | 23 kts | 89° |
| 2026-04-27 05:14 | 19.09045 | 72.86920 | 34 ft | 28 kts | 90° |
| 2026-04-27 05:14 | 19.09048 | 72.87130 | 34 ft | 27 kts | 89° |
| 2026-04-27 05:14 | 19.09052 | 72.87344 | 34 ft | 31 kts | 90° |
| 2026-04-27 05:15 | 19.09054 | 72.87585 | 33 ft | 35 kts | 89° |
| 2026-04-27 05:15 | 19.09057 | 72.87774 | 33 ft | 22 kts | 88° |
| 2026-04-27 05:15 | 19.09059 | 72.87915 | 33 ft | 17 kts | 89° |
| 2026-04-27 05:15 | 19.09054 | 72.88033 | 32 ft | 14 kts | 113° |
| 2026-04-27 05:16 | 19.09007 | 72.88051 | 33 ft | 0 kts | 175° |
| 2026-04-27 05:17 | 19.08996 | 72.88052 | 32 ft | 4 kts | 175° |
| 2026-04-27 05:18 | 19.08955 | 72.88042 | 32 ft | 9 kts | 210° |
| 2026-04-27 05:18 | 19.08907 | 72.87965 | 32 ft | 16 kts | 239° |
| 2026-04-27 05:18 | 19.08887 | 72.87891 | 33 ft | 0 kts | 267° |
| 2026-04-27 05:18 | 19.08886 | 72.87804 | 33 ft | 44 kts | 269° |
| 2026-04-27 05:19 | 19.08876 | 72.87194 | 35 ft | 121 kts | 269° |
| 2026-04-27 05:19 | 19.08855 | 72.86077 | 238 ft | 173 kts | 269° |
| 2026-04-27 05:19 | 19.08825 | 72.84730 | 1005 ft | 194 kts | 269° |
| 2026-04-27 05:19 | 19.08792 | 72.83193 | 1811 ft | 221 kts | 269° |
| 2026-04-27 05:20 | 19.08756 | 72.81541 | 2944 ft | 227 kts | 269° |
| 2026-04-27 05:20 | 19.08764 | 72.79890 | 4255 ft | 220 kts | 276° |
| 2026-04-27 05:20 | 19.09149 | 72.78379 | 5518 ft | 214 kts | 302° |
| 2026-04-27 05:20 | 19.10218 | 72.77339 | 6475 ft | 210 kts | 339° |
| 2026-04-27 05:21 | 19.11633 | 72.76790 | 7168 ft | 226 kts | 335° |
| 2026-04-27 05:21 | 19.13141 | 72.76096 | 7789 ft | 246 kts | 338° |
| 2026-04-27 05:21 | 19.14815 | 72.75497 | 8516 ft | 262 kts | 344° |
| 2026-04-27 05:21 | 19.16647 | 72.75047 | 9269 ft | 280 kts | 349° |
| 2026-04-27 05:22 | 19.18632 | 72.74708 | 9642 ft | 290 kts | 352° |
| 2026-04-27 05:22 | 19.20635 | 72.74469 | 9843 ft | 291 kts | 354° |
| 2026-04-27 05:22 | 19.22654 | 72.74292 | 9930 ft | 290 kts | 355° |
| 2026-04-27 05:22 | 19.24666 | 72.74157 | 9970 ft | 289 kts | 356° |
| 2026-04-27 05:23 | 19.26680 | 72.74061 | 10124 ft | 292 kts | 359° |
| 2026-04-27 05:23 | 19.28709 | 72.74116 | 10758 ft | 291 kts | 3° |
| 2026-04-27 05:23 | 19.30734 | 72.74268 | 11679 ft | 293 kts | 5° |
| 2026-04-27 05:23 | 19.32779 | 72.74475 | 12652 ft | 297 kts | 6° |
| 2026-04-27 05:24 | 19.34852 | 72.74720 | 13594 ft | 302 kts | 6° |
| 2026-04-27 05:24 | 19.36954 | 72.74993 | 14490 ft | 307 kts | 7° |
| 2026-04-27 05:24 | 19.39083 | 72.75287 | 15378 ft | 311 kts | 7° |
| 2026-04-27 05:24 | 19.41242 | 72.75597 | 16229 ft | 315 kts | 7° |
| 2026-04-27 05:25 | 19.43431 | 72.75918 | 17064 ft | 320 kts | 7° |
| 2026-04-27 05:25 | 19.45648 | 72.76250 | 17876 ft | 324 kts | 8° |
| 2026-04-27 05:25 | 19.47881 | 72.76588 | 18419 ft | 323 kts | 8° |
| 2026-04-27 05:25 | 19.50126 | 72.76930 | 18746 ft | 332 kts | 8° |
| 2026-04-27 05:26 | 19.52500 | 72.77293 | 18896 ft | 358 kts | 8° |
| 2026-04-27 05:26 | 19.55049 | 72.77684 | 18952 ft | 375 kts | 8° |
| 2026-04-27 05:26 | 19.57613 | 72.78077 | 19011 ft | 371 kts | 8° |
| 2026-04-27 05:26 | 19.60170 | 72.78471 | 19313 ft | 372 kts | 8° |
| 2026-04-27 05:27 | 19.62734 | 72.78866 | 20012 ft | 373 kts | 8° |
| 2026-04-27 05:27 | 19.65321 | 72.79266 | 20779 ft | 377 kts | 8° |
| 2026-04-27 05:27 | 19.67934 | 72.79670 | 21514 ft | 382 kts | 8° |
| 2026-04-27 05:27 | 19.70574 | 72.80079 | 22218 ft | 386 kts | 8° |
| 2026-04-27 05:28 | 19.73253 | 72.80494 | 22920 ft | 391 kts | 8° |
| 2026-04-27 05:28 | 19.75955 | 72.80913 | 23580 ft | 395 kts | 8° |
| 2026-04-27 05:28 | 19.78692 | 72.81338 | 24249 ft | 399 kts | 8° |
| 2026-04-27 05:28 | 19.81458 | 72.81767 | 24887 ft | 404 kts | 8° |
| 2026-04-27 05:29 | 19.84249 | 72.82201 | 25510 ft | 408 kts | 8° |
| 2026-04-27 05:29 | 19.87072 | 72.82641 | 26107 ft | 412 kts | 8° |
| 2026-04-27 05:29 | 19.88953 | 72.82933 | 26506 ft | 414 kts | 8° |
| 2026-04-27 05:29 | 19.92799 | 72.83532 | 27268 ft | 420 kts | 8° |
| 2026-04-27 05:30 | 19.95700 | 72.83985 | 27848 ft | 423 kts | 8° |
| 2026-04-27 05:30 | 19.98624 | 72.84443 | 28389 ft | 427 kts | 8° |
| 2026-04-27 05:30 | 20.00582 | 72.84749 | 28736 ft | 430 kts | 8° |
| 2026-04-27 05:30 | 20.03551 | 72.85216 | 29270 ft | 433 kts | 8° |
| 2026-04-27 05:31 | 20.06550 | 72.85667 | 29787 ft | 437 kts | 7° |
| 2026-04-27 05:31 | 20.09575 | 72.86085 | 30292 ft | 440 kts | 7° |
| 2026-04-27 05:31 | 20.12622 | 72.86488 | 30780 ft | 443 kts | 7° |
| 2026-04-27 05:31 | 20.15698 | 72.86886 | 31251 ft | 447 kts | 6° |
| 2026-04-27 05:32 | 20.18802 | 72.87283 | 31720 ft | 450 kts | 6° |
| 2026-04-27 05:32 | 20.21924 | 72.87681 | 32177 ft | 454 kts | 6° |
| 2026-04-27 05:32 | 20.25068 | 72.88080 | 32634 ft | 456 kts | 6° |
| 2026-04-27 05:32 | 20.28221 | 72.88482 | 33207 ft | 456 kts | 6° |
| 2026-04-27 05:33 | 20.31349 | 72.88881 | 33628 ft | 448 kts | 6° |
| 2026-04-27 05:33 | 20.34436 | 72.89276 | 33840 ft | 448 kts | 6° |
| 2026-04-27 05:33 | 20.37552 | 72.89675 | 33929 ft | 454 kts | 6° |
| 2026-04-27 05:34 | 20.43849 | 72.90483 | 33985 ft | 455 kts | 6° |
| 2026-04-27 05:34 | 20.50162 | 72.91295 | 33997 ft | 465 kts | 6° |
| 2026-04-27 05:35 | 20.56580 | 72.92122 | 33994 ft | 466 kts | 7° |
| 2026-04-27 05:35 | 20.62986 | 72.92951 | 34001 ft | 463 kts | 7° |
| 2026-04-27 05:36 | 20.69392 | 72.93783 | 33999 ft | 465 kts | 7° |
| 2026-04-27 05:36 | 20.75826 | 72.94465 | 33995 ft | 464 kts | 3° |
| 2026-04-27 05:37 | 20.82269 | 72.94820 | 33999 ft | 463 kts | 2° |
| 2026-04-27 05:37 | 20.88714 | 72.95084 | 33999 ft | 464 kts | 2° |
| 2026-04-27 05:38 | 20.95177 | 72.95324 | 33998 ft | 464 kts | 1° |
| 2026-04-27 05:38 | 21.01627 | 72.95559 | 34000 ft | 463 kts | 1° |
| 2026-04-27 05:39 | 21.08072 | 72.95796 | 34000 ft | 464 kts | 1° |
| 2026-04-27 05:39 | 21.14530 | 72.96044 | 33999 ft | 464 kts | 4° |
| 2026-04-27 05:40 | 21.20813 | 72.97554 | 34007 ft | 464 kts | 17° |
| 2026-04-27 05:40 | 21.26964 | 72.99705 | 34000 ft | 465 kts | 18° |
| 2026-04-27 05:41 | 21.33070 | 73.01967 | 33999 ft | 464 kts | 19° |
| 2026-04-27 05:41 | 21.39166 | 73.04270 | 33999 ft | 464 kts | 19° |
| 2026-04-27 05:42 | 21.45261 | 73.06594 | 33999 ft | 465 kts | 19° |
| 2026-04-27 05:42 | 21.51353 | 73.08930 | 33997 ft | 464 kts | 19° |
| 2026-04-27 05:43 | 21.57434 | 73.11270 | 33999 ft | 464 kts | 19° |
| 2026-04-27 05:43 | 21.63525 | 73.13619 | 34000 ft | 465 kts | 19° |
| 2026-04-27 05:44 | 21.69611 | 73.15973 | 33999 ft | 465 kts | 19° |
| 2026-04-27 05:44 | 21.75687 | 73.18325 | 34000 ft | 464 kts | 19° |
| 2026-04-27 05:45 | 21.81769 | 73.20684 | 34000 ft | 465 kts | 19° |
| 2026-04-27 05:45 | 21.87856 | 73.23048 | 34000 ft | 465 kts | 19° |
| 2026-04-27 05:46 | 21.93937 | 73.25411 | 34000 ft | 464 kts | 19° |
| 2026-04-27 05:46 | 22.00008 | 73.27773 | 34000 ft | 465 kts | 20° |
| 2026-04-27 05:47 | 22.06056 | 73.30130 | 33998 ft | 465 kts | 20° |
| 2026-04-27 05:47 | 22.12136 | 73.32501 | 33999 ft | 464 kts | 20° |
| 2026-04-27 05:48 | 22.18210 | 73.34872 | 34000 ft | 465 kts | 20° |
| 2026-04-27 05:48 | 22.24297 | 73.37251 | 34000 ft | 465 kts | 20° |
| 2026-04-27 05:49 | 22.30376 | 73.39629 | 34000 ft | 464 kts | 20° |
| 2026-04-27 05:49 | 22.36450 | 73.42008 | 34000 ft | 465 kts | 20° |
| 2026-04-27 05:50 | 22.42534 | 73.44392 | 34001 ft | 466 kts | 20° |
| 2026-04-27 05:50 | 22.48622 | 73.46780 | 34000 ft | 465 kts | 20° |
| 2026-04-27 05:51 | 22.54701 | 73.49167 | 34001 ft | 465 kts | 20° |
| 2026-04-27 05:51 | 22.60786 | 73.51557 | 33999 ft | 466 kts | 20° |
| 2026-04-27 05:52 | 22.66871 | 73.53952 | 34001 ft | 465 kts | 20° |
| 2026-04-27 05:52 | 22.72947 | 73.56347 | 34000 ft | 465 kts | 20° |
| 2026-04-27 05:53 | 22.79022 | 73.58742 | 34001 ft | 466 kts | 20° |
| 2026-04-27 05:53 | 22.85122 | 73.61146 | 34000 ft | 465 kts | 20° |
| 2026-04-27 05:54 | 22.91197 | 73.63542 | 34000 ft | 465 kts | 20° |
| 2026-04-27 05:54 | 22.97284 | 73.65945 | 34001 ft | 466 kts | 20° |
| 2026-04-27 05:55 | 23.03377 | 73.68354 | 34000 ft | 466 kts | 20° |
| 2026-04-27 05:55 | 23.09462 | 73.70762 | 34000 ft | 465 kts | 20° |
| 2026-04-27 05:56 | 23.15541 | 73.73170 | 34001 ft | 465 kts | 20° |
| 2026-04-27 05:56 | 23.21629 | 73.75584 | 34000 ft | 466 kts | 20° |
| 2026-04-27 05:57 | 23.27710 | 73.77998 | 34000 ft | 465 kts | 20° |
| 2026-04-27 05:57 | 23.33730 | 73.80392 | 34002 ft | 465 kts | 20° |
| 2026-04-27 05:58 | 23.39833 | 73.82820 | 34001 ft | 466 kts | 20° |
| 2026-04-27 05:58 | 23.45918 | 73.85244 | 34000 ft | 465 kts | 20° |
| 2026-04-27 05:59 | 23.51993 | 73.87666 | 34000 ft | 466 kts | 20° |
| 2026-04-27 05:59 | 23.58091 | 73.90101 | 33999 ft | 466 kts | 20° |
| 2026-04-27 06:00 | 23.67216 | 73.93748 | 34000 ft | 465 kts | 20° |
| 2026-04-27 06:00 | 23.73294 | 73.96180 | 34001 ft | 466 kts | 20° |
| 2026-04-27 06:01 | 23.79392 | 73.98621 | 33999 ft | 467 kts | 20° |
| 2026-04-27 06:01 | 23.85132 | 74.00923 | 33999 ft | 465 kts | 20° |
| 2026-04-27 06:02 | 23.91204 | 74.03360 | 34001 ft | 466 kts | 20° |
| 2026-04-27 06:02 | 23.95313 | 74.05012 | 34001 ft | 467 kts | 20° |
| 2026-04-27 06:03 | 24.01982 | 74.07694 | 33999 ft | 466 kts | 20° |
| 2026-04-27 06:03 | 24.08063 | 74.10134 | 34000 ft | 465 kts | 20° |
| 2026-04-27 06:04 | 24.14156 | 74.12580 | 34001 ft | 468 kts | 20° |
| 2026-04-27 06:04 | 24.20221 | 74.15018 | 33999 ft | 467 kts | 20° |
| 2026-04-27 06:05 | 24.26317 | 74.17473 | 34000 ft | 467 kts | 20° |
| 2026-04-27 06:05 | 24.32424 | 74.19935 | 34001 ft | 468 kts | 20° |
| 2026-04-27 06:06 | 24.38529 | 74.22401 | 34000 ft | 467 kts | 20° |
| 2026-04-27 06:06 | 24.44587 | 74.24851 | 34000 ft | 467 kts | 20° |
| 2026-04-27 06:07 | 24.50730 | 74.27339 | 34001 ft | 468 kts | 20° |
| 2026-04-27 06:07 | 24.56806 | 74.29803 | 33999 ft | 468 kts | 20° |
| 2026-04-27 06:08 | 24.62580 | 74.32147 | 34001 ft | 467 kts | 20° |
| 2026-04-27 06:08 | 24.68682 | 74.34627 | 34001 ft | 468 kts | 20° |
| 2026-04-27 06:09 | 24.74788 | 74.37112 | 34000 ft | 468 kts | 20° |
| 2026-04-27 06:09 | 24.80876 | 74.39592 | 34000 ft | 467 kts | 20° |
| 2026-04-27 06:10 | 24.86938 | 74.42064 | 34001 ft | 468 kts | 20° |
| 2026-04-27 06:10 | 24.93047 | 74.44557 | 34000 ft | 468 kts | 20° |
| 2026-04-27 06:11 | 24.99136 | 74.47046 | 34000 ft | 467 kts | 20° |
| 2026-04-27 06:11 | 25.05231 | 74.49541 | 33998 ft | 468 kts | 20° |
| 2026-04-27 06:12 | 25.11300 | 74.52029 | 34000 ft | 468 kts | 20° |
| 2026-04-27 06:12 | 25.17397 | 74.54531 | 34000 ft | 467 kts | 20° |
| 2026-04-27 06:13 | 25.22141 | 74.56480 | 34001 ft | 467 kts | 20° |
| 2026-04-27 06:13 | 25.28808 | 74.59224 | 34001 ft | 468 kts | 20° |
| 2026-04-27 06:14 | 25.34900 | 74.61735 | 34001 ft | 467 kts | 20° |
| 2026-04-27 06:14 | 25.40990 | 74.64249 | 34001 ft | 467 kts | 20° |
| 2026-04-27 06:15 | 25.47083 | 74.66767 | 34001 ft | 468 kts | 20° |
| 2026-04-27 06:15 | 25.53142 | 74.69274 | 34000 ft | 468 kts | 20° |
| 2026-04-27 06:16 | 25.59230 | 74.71796 | 34001 ft | 466 kts | 20° |
| 2026-04-27 06:16 | 25.65311 | 74.74319 | 34000 ft | 467 kts | 20° |
| 2026-04-27 06:17 | 25.71405 | 74.76850 | 33998 ft | 468 kts | 20° |
| 2026-04-27 06:17 | 25.77492 | 74.79381 | 33999 ft | 467 kts | 20° |
| 2026-04-27 06:18 | 25.83530 | 74.81893 | 34000 ft | 467 kts | 20° |
| 2026-04-27 06:18 | 25.89617 | 74.84429 | 34000 ft | 468 kts | 20° |
| 2026-04-27 06:19 | 25.95705 | 74.86969 | 34000 ft | 467 kts | 20° |
| 2026-04-27 06:19 | 26.01779 | 74.89507 | 34001 ft | 467 kts | 20° |
| 2026-04-27 06:20 | 26.07828 | 74.92037 | 34000 ft | 468 kts | 20° |
| 2026-04-27 06:20 | 26.13911 | 74.94586 | 33999 ft | 466 kts | 20° |
| 2026-04-27 06:21 | 26.19987 | 74.97126 | 34001 ft | 467 kts | 20° |
| 2026-04-27 06:21 | 26.26079 | 74.99670 | 34001 ft | 468 kts | 20° |
| 2026-04-27 06:22 | 26.32118 | 75.02195 | 33999 ft | 467 kts | 20° |
| 2026-04-27 06:22 | 26.38200 | 75.04742 | 34000 ft | 467 kts | 20° |
| 2026-04-27 06:23 | 26.44294 | 75.07296 | 34000 ft | 468 kts | 20° |
| 2026-04-27 06:23 | 26.50382 | 75.09843 | 34000 ft | 467 kts | 20° |
| 2026-04-27 06:24 | 26.56452 | 75.12385 | 34001 ft | 466 kts | 20° |
| 2026-04-27 06:24 | 26.62503 | 75.14922 | 34001 ft | 468 kts | 20° |
| 2026-04-27 06:25 | 26.68587 | 75.17478 | 34000 ft | 467 kts | 20° |
| 2026-04-27 06:25 | 26.74663 | 75.20028 | 34001 ft | 466 kts | 20° |
| 2026-04-27 06:26 | 26.80744 | 75.22583 | 34001 ft | 468 kts | 20° |
| 2026-04-27 06:26 | 26.86790 | 75.25127 | 34000 ft | 467 kts | 20° |
| 2026-04-27 06:27 | 26.92873 | 75.27691 | 34001 ft | 467 kts | 20° |
| 2026-04-27 06:27 | 26.98952 | 75.30257 | 34001 ft | 467 kts | 20° |
| 2026-04-27 06:28 | 27.05043 | 75.32834 | 34000 ft | 468 kts | 20° |
| 2026-04-27 06:28 | 27.11075 | 75.35384 | 34000 ft | 467 kts | 20° |
| 2026-04-27 06:29 | 27.17163 | 75.37962 | 34001 ft | 467 kts | 20° |
| 2026-04-27 06:29 | 27.20098 | 75.39511 | 34012 ft | 467 kts | 33° |
| 2026-04-27 06:29 | 27.22688 | 75.41713 | 34013 ft | 468 kts | 40° |
| 2026-04-27 06:30 | 27.27554 | 75.46605 | 34001 ft | 469 kts | 43° |
| 2026-04-27 06:30 | 27.32238 | 75.51611 | 34000 ft | 467 kts | 44° |
| 2026-04-27 06:31 | 27.36913 | 75.56708 | 34000 ft | 469 kts | 44° |
| 2026-04-27 06:31 | 27.41582 | 75.61841 | 33996 ft | 469 kts | 44° |
| 2026-04-27 06:32 | 27.46227 | 75.66969 | 33998 ft | 468 kts | 44° |
| 2026-04-27 06:32 | 27.50847 | 75.72081 | 34001 ft | 469 kts | 44° |
| 2026-04-27 06:33 | 27.55491 | 75.77229 | 34000 ft | 469 kts | 44° |
| 2026-04-27 06:33 | 27.60144 | 75.82396 | 33693 ft | 469 kts | 44° |
| 2026-04-27 06:34 | 27.62596 | 75.84812 | 32939 ft | 468 kts | 33° |
| 2026-04-27 06:34 | 27.65488 | 75.86494 | 31818 ft | 470 kts | 22° |
| 2026-04-27 06:34 | 27.68582 | 75.87791 | 30917 ft | 479 kts | 19° |
| 2026-04-27 06:34 | 27.71727 | 75.88967 | 30542 ft | 470 kts | 17° |
| 2026-04-27 06:35 | 27.74746 | 75.90042 | 30234 ft | 453 kts | 17° |
| 2026-04-27 06:35 | 27.77707 | 75.91068 | 30099 ft | 440 kts | 17° |
| 2026-04-27 06:35 | 27.80647 | 75.92072 | 29908 ft | 443 kts | 16° |
| 2026-04-27 06:35 | 27.83615 | 75.93079 | 29255 ft | 447 kts | 16° |
| 2026-04-27 06:36 | 27.86591 | 75.94084 | 28376 ft | 447 kts | 16° |
| 2026-04-27 06:36 | 27.89573 | 75.95091 | 27303 ft | 448 kts | 16° |
| 2026-04-27 06:36 | 27.92571 | 75.96102 | 26257 ft | 449 kts | 16° |
| 2026-04-27 06:36 | 27.95491 | 75.97088 | 25707 ft | 438 kts | 16° |
| 2026-04-27 06:37 | 27.98366 | 75.98060 | 25316 ft | 424 kts | 16° |
| 2026-04-27 06:37 | 28.01133 | 75.98996 | 25141 ft | 407 kts | 16° |
| 2026-04-27 06:37 | 28.03831 | 75.99910 | 25064 ft | 404 kts | 16° |
| 2026-04-27 06:37 | 28.06533 | 76.00826 | 25031 ft | 407 kts | 16° |
| 2026-04-27 06:38 | 28.09248 | 76.01748 | 25017 ft | 408 kts | 16° |
| 2026-04-27 06:38 | 28.11964 | 76.02670 | 25004 ft | 407 kts | 16° |
| 2026-04-27 06:38 | 28.14671 | 76.03591 | 25010 ft | 406 kts | 16° |
| 2026-04-27 06:38 | 28.17381 | 76.04513 | 25003 ft | 407 kts | 16° |
| 2026-04-27 06:39 | 28.20025 | 76.05539 | 25016 ft | 408 kts | 26° |
| 2026-04-27 06:39 | 28.22340 | 76.07368 | 25028 ft | 408 kts | 45° |
| 2026-04-27 06:39 | 28.24065 | 76.09916 | 25024 ft | 409 kts | 58° |
| 2026-04-27 06:39 | 28.25503 | 76.12707 | 25003 ft | 409 kts | 61° |
| 2026-04-27 06:40 | 28.26843 | 76.15542 | 25003 ft | 407 kts | 62° |
| 2026-04-27 06:40 | 28.28141 | 76.18399 | 24890 ft | 407 kts | 63° |
| 2026-04-27 06:40 | 28.29415 | 76.21260 | 24397 ft | 405 kts | 63° |
| 2026-04-27 06:40 | 28.30668 | 76.24103 | 23717 ft | 402 kts | 63° |
| 2026-04-27 06:41 | 28.31787 | 76.26654 | 23112 ft | 398 kts | 63° |
| 2026-04-27 06:41 | 28.33011 | 76.29448 | 22451 ft | 393 kts | 63° |
| 2026-04-27 06:41 | 28.34222 | 76.32212 | 21793 ft | 389 kts | 63° |
| 2026-04-27 06:41 | 28.35418 | 76.34943 | 21137 ft | 385 kts | 63° |
| 2026-04-27 06:42 | 28.36607 | 76.37656 | 20490 ft | 381 kts | 63° |
| 2026-04-27 06:42 | 28.37775 | 76.40334 | 19845 ft | 377 kts | 64° |
| 2026-04-27 06:42 | 28.38940 | 76.42988 | 19202 ft | 373 kts | 63° |
| 2026-04-27 06:42 | 28.40093 | 76.45610 | 18567 ft | 369 kts | 63° |
| 2026-04-27 06:43 | 28.41234 | 76.48204 | 17919 ft | 366 kts | 63° |
| 2026-04-27 06:43 | 28.42349 | 76.50741 | 17303 ft | 362 kts | 63° |
| 2026-04-27 06:43 | 28.43468 | 76.53288 | 16677 ft | 359 kts | 63° |
| 2026-04-27 06:43 | 28.44578 | 76.55816 | 16045 ft | 355 kts | 63° |
| 2026-04-27 06:44 | 28.45673 | 76.58313 | 15423 ft | 352 kts | 63° |
| 2026-04-27 06:44 | 28.46760 | 76.60792 | 14800 ft | 349 kts | 63° |
| 2026-04-27 06:44 | 28.47837 | 76.63249 | 14183 ft | 345 kts | 63° |
| 2026-04-27 06:44 | 28.48902 | 76.65681 | 13604 ft | 345 kts | 63° |
| 2026-04-27 06:45 | 28.49978 | 76.68139 | 13276 ft | 345 kts | 64° |
| 2026-04-27 06:45 | 28.50725 | 76.70677 | 13131 ft | 339 kts | 82° |
| 2026-04-27 06:45 | 28.50854 | 76.73360 | 13062 ft | 341 kts | 91° |
| 2026-04-27 06:45 | 28.50736 | 76.76048 | 13023 ft | 340 kts | 95° |
| 2026-04-27 06:46 | 28.50623 | 76.77523 | 13023 ft | 340 kts | 95° |
| 2026-04-27 06:46 | 28.50239 | 76.81095 | 13009 ft | 341 kts | 101° |
| 2026-04-27 06:46 | 28.49738 | 76.83690 | 13009 ft | 340 kts | 103° |
| 2026-04-27 06:46 | 28.49259 | 76.86003 | 13011 ft | 340 kts | 103° |
| 2026-04-27 06:47 | 28.48782 | 76.88242 | 13009 ft | 340 kts | 104° |
| 2026-04-27 06:47 | 28.48221 | 76.90862 | 13006 ft | 341 kts | 104° |
| 2026-04-27 06:47 | 28.47664 | 76.93477 | 13004 ft | 340 kts | 104° |
| 2026-04-27 06:47 | 28.47104 | 76.96089 | 13004 ft | 340 kts | 104° |
| 2026-04-27 06:48 | 28.46732 | 76.97822 | 12916 ft | 342 kts | 104° |
| 2026-04-27 06:48 | 28.46170 | 77.00442 | 12742 ft | 339 kts | 104° |
| 2026-04-27 06:48 | 28.45612 | 77.03038 | 12568 ft | 338 kts | 104° |
| 2026-04-27 06:48 | 28.44871 | 77.06476 | 12336 ft | 338 kts | 104° |
| 2026-04-27 06:49 | 28.44316 | 77.09060 | 12168 ft | 336 kts | 104° |
| 2026-04-27 06:49 | 28.43762 | 77.11633 | 11981 ft | 335 kts | 104° |
| 2026-04-27 06:49 | 28.43388 | 77.13373 | 11867 ft | 336 kts | 104° |
| 2026-04-27 06:49 | 28.42842 | 77.15905 | 11690 ft | 334 kts | 104° |
| 2026-04-27 06:50 | 28.42290 | 77.18467 | 11520 ft | 333 kts | 104° |
| 2026-04-27 06:50 | 28.41738 | 77.21020 | 11336 ft | 333 kts | 104° |
| 2026-04-27 06:50 | 28.41061 | 77.24406 | 11124 ft | 331 kts | 95° |
| 2026-04-27 06:50 | 28.41097 | 77.26164 | 11007 ft | 330 kts | 79° |
| 2026-04-27 06:51 | 28.42354 | 77.29256 | 10799 ft | 330 kts | 48° |
| 2026-04-27 06:51 | 28.43506 | 77.30430 | 10689 ft | 329 kts | 32° |
| 2026-04-27 06:51 | 28.45594 | 77.31405 | 10531 ft | 326 kts | 9° |
| 2026-04-27 06:51 | 28.47843 | 77.31355 | 10374 ft | 325 kts | 346° |
| 2026-04-27 06:52 | 28.49739 | 77.30405 | 10223 ft | 324 kts | 324° |
| 2026-04-27 06:52 | 28.51268 | 77.28562 | 10111 ft | 321 kts | 300° |
| 2026-04-27 06:52 | 28.52018 | 77.26183 | 10072 ft | 322 kts | 280° |
| 2026-04-27 06:52 | 28.52331 | 77.23660 | 10021 ft | 322 kts | 276° |
| 2026-04-27 06:53 | 28.52529 | 77.21492 | 10015 ft | 321 kts | 275° |
| 2026-04-27 06:53 | 28.52740 | 77.18961 | 10000 ft | 322 kts | 275° |
| 2026-04-27 06:53 | 28.52958 | 77.16425 | 9997 ft | 322 kts | 276° |
| 2026-04-27 06:53 | 28.53213 | 77.13861 | 9996 ft | 321 kts | 278° |
| 2026-04-27 06:54 | 28.53917 | 77.11477 | 10002 ft | 322 kts | 301° |
| 2026-04-27 06:54 | 28.55433 | 77.09603 | 10003 ft | 324 kts | 325° |
| 2026-04-27 06:54 | 28.57454 | 77.08599 | 10018 ft | 324 kts | 349° |
| 2026-04-27 06:54 | 28.59672 | 77.08594 | 10015 ft | 324 kts | 12° |
| 2026-04-27 06:55 | 28.61747 | 77.09624 | 10010 ft | 326 kts | 36° |
| 2026-04-27 06:55 | 28.63337 | 77.11448 | 10013 ft | 326 kts | 51° |
| 2026-04-27 06:55 | 28.64723 | 77.13490 | 9998 ft | 325 kts | 53° |
| 2026-04-27 06:55 | 28.66074 | 77.15551 | 9993 ft | 325 kts | 53° |
| 2026-04-27 06:56 | 28.67436 | 77.17613 | 9994 ft | 326 kts | 52° |
| 2026-04-27 06:56 | 28.68818 | 77.19650 | 9993 ft | 325 kts | 51° |
| 2026-04-27 06:56 | 28.70236 | 77.21656 | 9993 ft | 325 kts | 50° |
| 2026-04-27 06:56 | 28.71695 | 77.23626 | 9993 ft | 326 kts | 49° |
| 2026-04-27 06:57 | 28.73207 | 77.25568 | 9668 ft | 331 kts | 47° |
| 2026-04-27 06:57 | 28.74784 | 77.27484 | 8920 ft | 332 kts | 45° |
| 2026-04-27 06:57 | 28.76438 | 77.29292 | 8399 ft | 325 kts | 41° |
| 2026-04-27 06:57 | 28.78159 | 77.30863 | 8175 ft | 310 kts | 36° |
| 2026-04-27 06:58 | 28.79898 | 77.32195 | 8078 ft | 291 kts | 31° |
| 2026-04-27 06:58 | 28.83383 | 77.34317 | 8015 ft | 284 kts | 27° |
| 2026-04-27 06:58 | 28.85095 | 77.35433 | 8014 ft | 282 kts | 30° |
| 2026-04-27 06:59 | 28.86780 | 77.36583 | 8014 ft | 283 kts | 30° |
| 2026-04-27 06:59 | 28.88497 | 77.37687 | 8011 ft | 283 kts | 26° |
| 2026-04-27 06:59 | 28.90298 | 77.38580 | 8010 ft | 282 kts | 18° |
| 2026-04-27 06:59 | 28.92219 | 77.38909 | 8025 ft | 282 kts | 353° |
| 2026-04-27 07:00 | 28.94063 | 77.38203 | 8037 ft | 282 kts | 325° |
| 2026-04-27 07:00 | 28.95407 | 77.36621 | 8037 ft | 280 kts | 298° |
| 2026-04-27 07:00 | 28.95956 | 77.34509 | 8041 ft | 281 kts | 271° |
| 2026-04-27 07:00 | 28.95600 | 77.32405 | 8034 ft | 262 kts | 242° |
| 2026-04-27 07:01 | 28.94479 | 77.30883 | 8042 ft | 249 kts | 213° |
| 2026-04-27 07:01 | 28.92956 | 77.29917 | 8023 ft | 250 kts | 207° |
| 2026-04-27 07:01 | 28.91408 | 77.29043 | 8007 ft | 248 kts | 206° |
| 2026-04-27 07:01 | 28.89862 | 77.28158 | 8001 ft | 249 kts | 207° |
| 2026-04-27 07:02 | 28.88368 | 77.27252 | 7998 ft | 248 kts | 209° |
| 2026-04-27 07:02 | 28.86853 | 77.26238 | 7990 ft | 248 kts | 213° |
| 2026-04-27 07:02 | 28.85473 | 77.25055 | 7997 ft | 249 kts | 222° |
| 2026-04-27 07:02 | 28.84258 | 77.23659 | 8002 ft | 248 kts | 230° |
| 2026-04-27 07:03 | 28.83195 | 77.22119 | 7996 ft | 247 kts | 235° |
| 2026-04-27 07:03 | 28.82248 | 77.20482 | 7994 ft | 248 kts | 239° |
| 2026-04-27 07:03 | 28.81385 | 77.18780 | 7992 ft | 247 kts | 242° |
| 2026-04-27 07:03 | 28.80585 | 77.17048 | 7995 ft | 247 kts | 241° |
| 2026-04-27 07:04 | 28.79514 | 77.15529 | 8009 ft | 249 kts | 219° |
| 2026-04-27 07:04 | 28.78134 | 77.14377 | 8042 ft | 239 kts | 223° |
| 2026-04-27 07:04 | 28.77215 | 77.12900 | 8025 ft | 228 kts | 244° |
| 2026-04-27 07:04 | 28.76706 | 77.11244 | 8016 ft | 220 kts | 257° |
| 2026-04-27 07:05 | 28.76474 | 77.09502 | 8013 ft | 224 kts | 264° |
| 2026-04-27 07:05 | 28.76329 | 77.07742 | 8007 ft | 222 kts | 264° |
| 2026-04-27 07:05 | 28.76164 | 77.05985 | 8009 ft | 224 kts | 263° |
| 2026-04-27 07:05 | 28.75942 | 77.04230 | 7998 ft | 224 kts | 258° |
| 2026-04-27 07:06 | 28.75560 | 77.02515 | 8002 ft | 223 kts | 253° |
| 2026-04-27 07:06 | 28.75057 | 77.00842 | 8002 ft | 224 kts | 248° |
| 2026-04-27 07:06 | 28.74376 | 76.99247 | 8001 ft | 224 kts | 242° |
| 2026-04-27 07:06 | 28.73624 | 76.97693 | 8003 ft | 224 kts | 240° |
| 2026-04-27 07:07 | 28.72781 | 76.96189 | 7780 ft | 230 kts | 235° |
| 2026-04-27 07:07 | 28.71790 | 76.94737 | 7351 ft | 232 kts | 228° |
| 2026-04-27 07:07 | 28.70691 | 76.93445 | 7152 ft | 221 kts | 225° |
| 2026-04-27 07:07 | 28.69614 | 76.92261 | 7075 ft | 212 kts | 222° |
| 2026-04-27 07:08 | 28.68455 | 76.91174 | 7041 ft | 219 kts | 218° |
| 2026-04-27 07:08 | 28.67179 | 76.90222 | 7027 ft | 219 kts | 210° |
| 2026-04-27 07:08 | 28.65840 | 76.89383 | 7015 ft | 221 kts | 208° |
| 2026-04-27 07:08 | 28.64460 | 76.88608 | 7012 ft | 222 kts | 204° |
| 2026-04-27 07:09 | 28.63029 | 76.87959 | 7002 ft | 221 kts | 199° |
| 2026-04-27 07:09 | 28.61543 | 76.87511 | 7005 ft | 222 kts | 193° |
| 2026-04-27 07:09 | 28.60031 | 76.87143 | 6997 ft | 222 kts | 193° |
| 2026-04-27 07:09 | 28.58685 | 76.86357 | 7005 ft | 220 kts | 226° |
| 2026-04-27 07:10 | 28.57757 | 76.84966 | 7002 ft | 222 kts | 226° |
| 2026-04-27 07:10 | 28.56464 | 76.84059 | 7016 ft | 221 kts | 194° |
| 2026-04-27 07:10 | 28.54946 | 76.84150 | 7015 ft | 224 kts | 159° |
| 2026-04-27 07:10 | 28.53690 | 76.85190 | 6870 ft | 226 kts | 134° |
| 2026-04-27 07:11 | 28.52536 | 76.86378 | 6691 ft | 222 kts | 142° |
| 2026-04-27 07:11 | 28.51265 | 76.87372 | 6513 ft | 222 kts | 148° |
| 2026-04-27 07:11 | 28.49903 | 76.88187 | 6335 ft | 221 kts | 156° |
| 2026-04-27 07:11 | 28.48510 | 76.88852 | 6176 ft | 212 kts | 156° |
| 2026-04-27 07:12 | 28.47221 | 76.89568 | 6080 ft | 200 kts | 152° |
| 2026-04-27 07:12 | 28.46028 | 76.90358 | 6040 ft | 199 kts | 146° |
| 2026-04-27 07:12 | 28.44910 | 76.91280 | 6020 ft | 199 kts | 143° |
| 2026-04-27 07:12 | 28.43809 | 76.92241 | 5962 ft | 199 kts | 142° |
| 2026-04-27 07:13 | 28.42790 | 76.93257 | 5803 ft | 190 kts | 136° |
| 2026-04-27 07:13 | 28.41907 | 76.94317 | 5620 ft | 181 kts | 130° |
| 2026-04-27 07:13 | 28.41135 | 76.95446 | 5445 ft | 181 kts | 127° |
| 2026-04-27 07:13 | 28.40391 | 76.96601 | 5266 ft | 181 kts | 126° |
| 2026-04-27 07:14 | 28.39669 | 76.97764 | 5124 ft | 178 kts | 123° |
| 2026-04-27 07:14 | 28.39048 | 76.98982 | 5059 ft | 179 kts | 117° |
| 2026-04-27 07:14 | 28.38557 | 77.00284 | 5023 ft | 180 kts | 111° |
| 2026-04-27 07:14 | 28.38124 | 77.01614 | 5013 ft | 180 kts | 110° |
| 2026-04-27 07:15 | 28.37711 | 77.02936 | 5010 ft | 180 kts | 109° |
| 2026-04-27 07:15 | 28.37392 | 77.04338 | 4917 ft | 183 kts | 100° |
| 2026-04-27 07:15 | 28.37150 | 77.05726 | 4745 ft | 180 kts | 101° |
| 2026-04-27 07:15 | 28.36938 | 77.07117 | 4576 ft | 178 kts | 97° |
| 2026-04-27 07:16 | 28.36802 | 77.08512 | 4401 ft | 178 kts | 95° |
| 2026-04-27 07:16 | 28.36856 | 77.09907 | 4227 ft | 178 kts | 81° |
| 2026-04-27 07:16 | 28.37002 | 77.11304 | 4101 ft | 176 kts | 84° |
| 2026-04-27 07:16 | 28.37144 | 77.12688 | 4049 ft | 177 kts | 81° |
| 2026-04-27 07:17 | 28.37350 | 77.14070 | 4020 ft | 178 kts | 79° |
| 2026-04-27 07:17 | 28.37578 | 77.15411 | 3984 ft | 169 kts | 76° |
| 2026-04-27 07:17 | 28.38025 | 77.16658 | 3970 ft | 172 kts | 66° |
| 2026-04-27 07:17 | 28.38468 | 77.17908 | 3936 ft | 166 kts | 68° |
| 2026-04-27 07:18 | 28.38886 | 77.19079 | 3911 ft | 160 kts | 65° |
| 2026-04-27 07:18 | 28.39371 | 77.20230 | 3887 ft | 161 kts | 63° |
| 2026-04-27 07:18 | 28.39876 | 77.21357 | 3863 ft | 161 kts | 61° |
| 2026-04-27 07:18 | 28.40564 | 77.22361 | 3831 ft | 162 kts | 50° |
| 2026-04-27 07:19 | 28.41263 | 77.23357 | 3810 ft | 160 kts | 52° |
| 2026-04-27 07:19 | 28.41965 | 77.24345 | 3788 ft | 161 kts | 48° |
| 2026-04-27 07:19 | 28.42717 | 77.25288 | 3766 ft | 161 kts | 46° |
| 2026-04-27 07:19 | 28.43484 | 77.26209 | 3748 ft | 160 kts | 45° |
| 2026-04-27 07:20 | 28.44364 | 77.26981 | 3731 ft | 161 kts | 34° |
| 2026-04-27 07:20 | 28.45272 | 77.27726 | 3720 ft | 160 kts | 35° |
| 2026-04-27 07:20 | 28.46195 | 77.28424 | 3689 ft | 160 kts | 31° |
| 2026-04-27 07:20 | 28.47154 | 77.29078 | 3673 ft | 161 kts | 29° |
| 2026-04-27 07:21 | 28.48118 | 77.29709 | 3644 ft | 159 kts | 27° |
| 2026-04-27 07:21 | 28.49180 | 77.29859 | 3604 ft | 158 kts | 340° |
| 2026-04-27 07:21 | 28.49968 | 77.29042 | 3557 ft | 158 kts | 293° |
| 2026-04-27 07:21 | 28.50256 | 77.27816 | 3316 ft | 162 kts | 281° |
| 2026-04-27 07:22 | 28.50476 | 77.26552 | 2921 ft | 162 kts | 280° |
| 2026-04-27 07:22 | 28.50701 | 77.25275 | 2495 ft | 166 kts | 282° |
| 2026-04-27 07:22 | 28.50949 | 77.24028 | 2257 ft | 156 kts | 282° |
| 2026-04-27 07:22 | 28.51187 | 77.22865 | 2128 ft | 148 kts | 283° |
| 2026-04-27 07:23 | 28.51426 | 77.21727 | 2062 ft | 148 kts | 283° |
| 2026-04-27 07:23 | 28.51674 | 77.20565 | 1811 ft | 153 kts | 283° |
| 2026-04-27 07:23 | 28.51924 | 77.19424 | 1640 ft | 145 kts | 284° |
| 2026-04-27 07:23 | 28.52178 | 77.18304 | 1520 ft | 148 kts | 284° |
| 2026-04-27 07:24 | 28.52445 | 77.17184 | 1451 ft | 146 kts | 284° |
| 2026-04-27 07:24 | 28.52688 | 77.16071 | 1404 ft | 148 kts | 284° |
| 2026-04-27 07:24 | 28.52928 | 77.14936 | 1315 ft | 148 kts | 283° |
| 2026-04-27 07:24 | 28.53174 | 77.13806 | 1202 ft | 146 kts | 284° |
| 2026-04-27 07:25 | 28.53417 | 77.12680 | 1079 ft | 147 kts | 283° |
| 2026-04-27 07:25 | 28.53673 | 77.11557 | 952 ft | 146 kts | 284° |
| 2026-04-27 07:25 | 28.53901 | 77.10436 | 853 ft | 145 kts | 283° |
| 2026-04-27 07:25 | 28.54140 | 77.09312 | 783 ft | 148 kts | 282° |
| 2026-04-27 07:26 | 28.54365 | 77.08233 | 747 ft | 117 kts | 281° |
| 2026-04-27 07:26 | 28.54505 | 77.07586 | 737 ft | 50 kts | 292° |
| 2026-04-27 07:26 | 28.54614 | 77.07419 | 736 ft | 5 kts | 313° |
| 2026-04-27 07:26 | 28.54614 | 77.07418 | 736 ft | 0 kts | 313° |
| 2026-04-27 07:28 | 28.54615 | 77.07418 | 736 ft | 1 kts | 313° |
| 2026-04-27 07:28 | 28.54631 | 77.07399 | 736 ft | 6 kts | 314° |
| 2026-04-27 07:29 | 28.54669 | 77.07354 | 736 ft | 9 kts | 314° |
| 2026-04-27 07:29 | 28.54716 | 77.07301 | 736 ft | 10 kts | 315° |
| 2026-04-27 07:29 | 28.54752 | 77.07225 | 735 ft | 12 kts | 284° |
| 2026-04-27 07:29 | 28.54773 | 77.07125 | 734 ft | 14 kts | 283° |
| 2026-04-27 07:30 | 28.54797 | 77.07009 | 732 ft | 16 kts | 283° |
| 2026-04-27 07:30 | 28.54838 | 77.06897 | 731 ft | 15 kts | 320° |
| 2026-04-27 07:30 | 28.54936 | 77.06912 | 731 ft | 15 kts | 13° |
| 2026-04-27 07:30 | 28.55038 | 77.06941 | 731 ft | 16 kts | 14° |
| 2026-04-27 07:31 | 28.55147 | 77.06972 | 731 ft | 16 kts | 12° |
| 2026-04-27 07:31 | 28.55205 | 77.07044 | 731 ft | 14 kts | 95° |
| 2026-04-27 07:31 | 28.55183 | 77.07150 | 732 ft | 14 kts | 105° |
| 2026-04-27 07:31 | 28.55183 | 77.07250 | 733 ft | 13 kts | 58° |
| 2026-04-27 07:32 | 28.55232 | 77.07322 | 734 ft | 12 kts | 90° |
| 2026-04-27 07:32 | 28.55214 | 77.07412 | 734 ft | 12 kts | 104° |
| 2026-04-27 07:32 | 28.55193 | 77.07504 | 735 ft | 12 kts | 106° |
| 2026-04-27 07:32 | 28.55171 | 77.07597 | 736 ft | 12 kts | 104° |
| 2026-04-27 07:33 | 28.55150 | 77.07692 | 737 ft | 12 kts | 95° |
| 2026-04-27 07:33 | 28.55210 | 77.07746 | 737 ft | 12 kts | 15° |
| 2026-04-27 07:33 | 28.55255 | 77.07816 | 737 ft | 12 kts | 95° |
| 2026-04-27 07:33 | 28.55257 | 77.07909 | 737 ft | 12 kts | 86° |
| 2026-04-27 07:34 | 28.55208 | 77.07973 | 738 ft | 11 kts | 147° |
| 2026-04-27 07:34 | 28.55169 | 77.08004 | 739 ft | 3 kts | 143° |
| 2026-04-27 07:34 | 28.55161 | 77.08016 | 739 ft | 0 kts | 128° |